sensor_id;sensor_type;location;lat;lon;timestamp;P1;durP1;ratioP1;P2;durP2;ratioP2
57249;SDS011;43102;52.014;-0.680;2023-04-01T00:00:01;8.70;;;6.90;;
57249;SDS011;43102;52.014;-0.680;2023-04-01T00:01:02;8.70;;;6.90;;
57249;SDS011;43102;52.014;-0.680;2023-04-01T00:02:00;8.70;;;6.90;;
57249;SDS011;43102;52.014;-0.680;2023-04-01T00:03:01;8.70;;;6.90;;
57249;SDS011;43102;52.014;-0.680;2023-04-01T00:04:01;8.70;;;6.90;;
57249;SDS011;43102;52.014;-0.680;2023-04-01T00:05:01;6.60;;;5.20;;
57249;SDS011;43102;52.014;-0.680;2023-04-01T00:06:01;6.60;;;5.20;;
57249;SDS011;43102;52.014;-0.680;2023-04-01T00:07:01;6.60;;;5.20;;
57249;SDS011;43102;52.014;-0.680;2023-04-01T00:08:00;6.60;;;5.20;;
57249;SDS011;43102;52.014;-0.680;2023-04-01T00:09:00;6.60;;;5.20;;
57249;SDS011;43102;52.014;-0.680;2023-04-01T00:10:00;6.60;;;5.20;;
57249;SDS011;43102;52.014;-0.680;2023-04-01T00:11:01;6.60;;;5.20;;
57249;SDS011;43102;52.014;-0.680;2023-04-01T00:12:01;6.60;;;5.20;;
57249;SDS011;43102;52.014;-0.680;2023-04-01T00:13:00;6.60;;;5.20;;
57249;SDS011;43102;52.014;-0.680;2023-04-01T00:14:00;6.60;;;5.20;;
57249;SDS011;43102;52.014;-0.680;2023-04-01T00:15:01;6.60;;;5.20;;
57249;SDS011;43102;52.014;-0.680;2023-04-01T00:16:04;6.60;;;5.20;;
57249;SDS011;43102;52.014;-0.680;2023-04-01T00:17:00;6.60;;;5.20;;
57249;SDS011;43102;52.014;-0.680;2023-04-01T00:18:00;6.60;;;5.20;;
57249;SDS011;43102;52.014;-0.680;2023-04-01T00:19:00;6.60;;;5.20;;
57249;SDS011;43102;52.014;-0.680;2023-04-01T00:20:01;6.60;;;5.20;;
57249;SDS011;43102;52.014;-0.680;2023-04-01T00:21:00;6.60;;;5.20;;
57249;SDS011;43102;52.014;-0.680;2023-04-01T00:22:01;6.60;;;5.20;;
57249;SDS011;43102;52.014;-0.680;2023-04-01T00:23:01;6.60;;;5.20;;
57249;SDS011;43102;52.014;-0.680;2023-04-01T00:24:00;6.60;;;5.20;;
57249;SDS011;43102;52.014;-0.680;2023-04-01T00:25:00;6.60;;;5.20;;
57249;SDS011;43102;52.014;-0.680;2023-04-01T00:26:02;6.60;;;5.20;;
57249;SDS011;43102;52.014;-0.680;2023-04-01T00:27:00;6.60;;;5.20;;
57249;SDS011;43102;52.014;-0.680;2023-04-01T00:28:00;6.60;;;5.20;;
57249;SDS011;43102;52.014;-0.680;2023-04-01T00:29:01;6.60;;;5.20;;
57249;SDS011;43102;52.014;-0.680;2023-04-01T00:30:01;6.60;;;5.20;;
57249;SDS011;43102;52.014;-0.680;2023-04-01T00:31:05;6.60;;;5.20;;
57249;SDS011;43102;52.014;-0.680;2023-04-01T00:32:01;6.60;;;5.20;;
57249;SDS011;43102;52.014;-0.680;2023-04-01T00:33:01;6.60;;;5.20;;
57249;SDS011;43102;52.014;-0.680;2023-04-01T00:34:00;6.60;;;5.20;;
57249;SDS011;43102;52.014;-0.680;2023-04-01T00:35:01;9.00;;;6.30;;
57249;SDS011;43102;52.014;-0.680;2023-04-01T00:36:09;9.00;;;6.30;;
57249;SDS011;43102;52.014;-0.680;2023-04-01T00:37:00;9.00;;;6.30;;
57249;SDS011;43102;52.014;-0.680;2023-04-01T00:38:00;9.00;;;6.30;;
57249;SDS011;43102;52.014;-0.680;2023-04-01T00:39:00;9.00;;;6.30;;
57249;SDS011;43102;52.014;-0.680;2023-04-01T00:40:01;9.00;;;6.30;;
57249;SDS011;43102;52.014;-0.680;2023-04-01T00:41:00;9.00;;;6.30;;
57249;SDS011;43102;52.014;-0.680;2023-04-01T00:42:01;9.00;;;6.30;;
57249;SDS011;43102;52.014;-0.680;2023-04-01T00:43:01;9.00;;;6.30;;
57249;SDS011;43102;52.014;-0.680;2023-04-01T00:44:11;9.00;;;6.30;;
57249;SDS011;43102;52.014;-0.680;2023-04-01T00:46:02;9.00;;;6.30;;
57249;SDS011;43102;52.014;-0.680;2023-04-01T00:47:01;9.00;;;6.30;;
57249;SDS011;43102;52.014;-0.680;2023-04-01T00:48:06;9.00;;;6.30;;
57249;SDS011;43102;52.014;-0.680;2023-04-01T00:49:01;9.00;;;6.30;;
57249;SDS011;43102;52.014;-0.680;2023-04-01T00:50:01;9.00;;;6.30;;
57249;SDS011;43102;52.014;-0.680;2023-04-01T00:51:05;9.00;;;6.30;;
57249;SDS011;43102;52.014;-0.680;2023-04-01T00:52:02;9.00;;;6.30;;
57249;SDS011;43102;52.014;-0.680;2023-04-01T00:53:01;9.00;;;6.30;;
57249;SDS011;43102;52.014;-0.680;2023-04-01T00:54:03;9.00;;;6.30;;
57249;SDS011;43102;52.014;-0.680;2023-04-01T00:55:03;9.00;;;6.30;;
57249;SDS011;43102;52.014;-0.680;2023-04-01T00:56:10;9.00;;;6.30;;
57249;SDS011;43102;52.014;-0.680;2023-04-01T00:57:05;9.00;;;6.30;;
57249;SDS011;43102;52.014;-0.680;2023-04-01T00:58:02;9.00;;;6.30;;
57249;SDS011;43102;52.014;-0.680;2023-04-01T00:59:06;9.00;;;6.30;;
57249;SDS011;43102;52.014;-0.680;2023-04-01T01:00:00;9.00;;;6.30;;
57249;SDS011;43102;52.014;-0.680;2023-04-01T01:01:01;9.00;;;6.30;;
57249;SDS011;43102;52.014;-0.680;2023-04-01T01:02:04;9.00;;;6.30;;
57249;SDS011;43102;52.014;-0.680;2023-04-01T01:03:02;9.00;;;6.30;;
57249;SDS011;43102;52.014;-0.680;2023-04-01T01:04:02;9.00;;;6.30;;
57249;SDS011;43102;52.014;-0.680;2023-04-01T01:05:01;9.80;;;6.80;;
57249;SDS011;43102;52.014;-0.680;2023-04-01T01:07:09;9.80;;;6.80;;
57249;SDS011;43102;52.014;-0.680;2023-04-01T01:08:02;9.80;;;6.80;;
57249;SDS011;43102;52.014;-0.680;2023-04-01T01:09:08;9.80;;;6.80;;
57249;SDS011;43102;52.014;-0.680;2023-04-01T01:10:09;9.80;;;6.80;;
57249;SDS011;43102;52.014;-0.680;2023-04-01T01:11:01;9.80;;;6.80;;
57249;SDS011;43102;52.014;-0.680;2023-04-01T01:12:05;9.80;;;6.80;;
57249;SDS011;43102;52.014;-0.680;2023-04-01T01:13:14;9.80;;;6.80;;
57249;SDS011;43102;52.014;-0.680;2023-04-01T01:16:04;9.80;;;6.80;;
57249;SDS011;43102;52.014;-0.680;2023-04-01T01:17:17;9.80;;;6.80;;
57249;SDS011;43102;52.014;-0.680;2023-04-01T01:22:27;9.80;;;6.80;;
57249;SDS011;43102;52.014;-0.680;2023-04-01T01:29:11;9.80;;;6.80;;
57249;SDS011;43102;52.014;-0.680;2023-04-01T01:30:13;9.80;;;6.80;;
57249;SDS011;43102;52.014;-0.680;2023-04-01T01:31:03;9.80;;;6.80;;
57249;SDS011;43102;52.014;-0.680;2023-04-01T01:35:14;5.70;;;4.40;;
57249;SDS011;43102;52.014;-0.680;2023-04-01T01:36:04;5.70;;;4.40;;
57249;SDS011;43102;52.014;-0.680;2023-04-01T01:37:07;5.70;;;4.40;;
57249;SDS011;43102;52.014;-0.680;2023-04-01T01:38:04;5.70;;;4.40;;
57249;SDS011;43102;52.014;-0.680;2023-04-01T01:39:03;5.70;;;4.40;;
57249;SDS011;43102;52.014;-0.680;2023-04-01T01:40:05;5.70;;;4.40;;
57249;SDS011;43102;52.014;-0.680;2023-04-01T01:41:02;5.70;;;4.40;;
57249;SDS011;43102;52.014;-0.680;2023-04-01T01:42:04;5.70;;;4.40;;
57249;SDS011;43102;52.014;-0.680;2023-04-01T01:43:09;5.70;;;4.40;;
57249;SDS011;43102;52.014;-0.680;2023-04-01T01:44:05;5.70;;;4.40;;
57249;SDS011;43102;52.014;-0.680;2023-04-01T01:45:03;5.70;;;4.40;;
57249;SDS011;43102;52.014;-0.680;2023-04-01T01:46:04;5.70;;;4.40;;
57249;SDS011;43102;52.014;-0.680;2023-04-01T01:47:01;5.70;;;4.40;;
57249;SDS011;43102;52.014;-0.680;2023-04-01T01:48:02;5.70;;;4.40;;
57249;SDS011;43102;52.014;-0.680;2023-04-01T01:49:02;5.70;;;4.40;;
57249;SDS011;43102;52.014;-0.680;2023-04-01T01:50:01;5.70;;;4.40;;
57249;SDS011;43102;52.014;-0.680;2023-04-01T01:51:01;5.70;;;4.40;;
57249;SDS011;43102;52.014;-0.680;2023-04-01T01:52:01;5.70;;;4.40;;
57249;SDS011;43102;52.014;-0.680;2023-04-01T01:53:04;5.70;;;4.40;;
57249;SDS011;43102;52.014;-0.680;2023-04-01T01:54:00;5.70;;;4.40;;
57249;SDS011;43102;52.014;-0.680;2023-04-01T01:55:02;5.70;;;4.40;;
57249;SDS011;43102;52.014;-0.680;2023-04-01T01:56:01;5.70;;;4.40;;
57249;SDS011;43102;52.014;-0.680;2023-04-01T01:57:07;5.70;;;4.40;;
57249;SDS011;43102;52.014;-0.680;2023-04-01T01:58:07;5.70;;;4.40;;
57249;SDS011;43102;52.014;-0.680;2023-04-01T01:59:04;5.70;;;4.40;;
57249;SDS011;43102;52.014;-0.680;2023-04-01T02:00:06;5.70;;;4.40;;
57249;SDS011;43102;52.014;-0.680;2023-04-01T02:01:04;5.70;;;4.40;;
57249;SDS011;43102;52.014;-0.680;2023-04-01T02:02:07;5.70;;;4.40;;
57249;SDS011;43102;52.014;-0.680;2023-04-01T02:03:01;5.70;;;4.40;;
57249;SDS011;43102;52.014;-0.680;2023-04-01T02:04:01;5.70;;;4.40;;
57249;SDS011;43102;52.014;-0.680;2023-04-01T02:05:01;7.30;;;4.10;;
57249;SDS011;43102;52.014;-0.680;2023-04-01T02:06:03;7.30;;;4.10;;
57249;SDS011;43102;52.014;-0.680;2023-04-01T02:07:04;7.30;;;4.10;;
57249;SDS011;43102;52.014;-0.680;2023-04-01T02:08:12;7.30;;;4.10;;
57249;SDS011;43102;52.014;-0.680;2023-04-01T02:09:03;7.30;;;4.10;;
57249;SDS011;43102;52.014;-0.680;2023-04-01T02:10:01;7.30;;;4.10;;
57249;SDS011;43102;52.014;-0.680;2023-04-01T02:11:05;7.30;;;4.10;;
57249;SDS011;43102;52.014;-0.680;2023-04-01T02:12:04;7.30;;;4.10;;
57249;SDS011;43102;52.014;-0.680;2023-04-01T02:13:05;7.30;;;4.10;;
57249;SDS011;43102;52.014;-0.680;2023-04-01T02:14:07;7.30;;;4.10;;
57249;SDS011;43102;52.014;-0.680;2023-04-01T02:15:09;7.30;;;4.10;;
57249;SDS011;43102;52.014;-0.680;2023-04-01T02:16:11;7.30;;;4.10;;
57249;SDS011;43102;52.014;-0.680;2023-04-01T02:17:05;7.30;;;4.10;;
57249;SDS011;43102;52.014;-0.680;2023-04-01T02:18:01;7.30;;;4.10;;
57249;SDS011;43102;52.014;-0.680;2023-04-01T02:19:03;7.30;;;4.10;;
57249;SDS011;43102;52.014;-0.680;2023-04-01T02:20:07;7.30;;;4.10;;
57249;SDS011;43102;52.014;-0.680;2023-04-01T02:21:01;7.30;;;4.10;;
57249;SDS011;43102;52.014;-0.680;2023-04-01T02:22:03;7.30;;;4.10;;
57249;SDS011;43102;52.014;-0.680;2023-04-01T02:23:02;7.30;;;4.10;;
57249;SDS011;43102;52.014;-0.680;2023-04-01T02:24:04;7.30;;;4.10;;
57249;SDS011;43102;52.014;-0.680;2023-04-01T02:25:06;7.30;;;4.10;;
57249;SDS011;43102;52.014;-0.680;2023-04-01T02:26:02;7.30;;;4.10;;
57249;SDS011;43102;52.014;-0.680;2023-04-01T02:27:00;7.30;;;4.10;;
57249;SDS011;43102;52.014;-0.680;2023-04-01T02:28:02;7.30;;;4.10;;
57249;SDS011;43102;52.014;-0.680;2023-04-01T02:29:01;7.30;;;4.10;;
57249;SDS011;43102;52.014;-0.680;2023-04-01T02:30:01;7.30;;;4.10;;
57249;SDS011;43102;52.014;-0.680;2023-04-01T02:31:02;7.30;;;4.10;;
57249;SDS011;43102;52.014;-0.680;2023-04-01T02:32:02;7.30;;;4.10;;
57249;SDS011;43102;52.014;-0.680;2023-04-01T02:33:01;7.30;;;4.10;;
57249;SDS011;43102;52.014;-0.680;2023-04-01T02:34:02;7.30;;;4.10;;
57249;SDS011;43102;52.014;-0.680;2023-04-01T02:35:09;8.00;;;5.40;;
57249;SDS011;43102;52.014;-0.680;2023-04-01T02:36:01;8.00;;;5.40;;
57249;SDS011;43102;52.014;-0.680;2023-04-01T02:37:01;8.00;;;5.40;;
57249;SDS011;43102;52.014;-0.680;2023-04-01T02:38:01;8.00;;;5.40;;
57249;SDS011;43102;52.014;-0.680;2023-04-01T02:39:02;8.00;;;5.40;;
57249;SDS011;43102;52.014;-0.680;2023-04-01T02:40:02;8.00;;;5.40;;
57249;SDS011;43102;52.014;-0.680;2023-04-01T02:41:00;8.00;;;5.40;;
57249;SDS011;43102;52.014;-0.680;2023-04-01T02:42:00;8.00;;;5.40;;
57249;SDS011;43102;52.014;-0.680;2023-04-01T02:43:00;8.00;;;5.40;;
57249;SDS011;43102;52.014;-0.680;2023-04-01T02:44:00;8.00;;;5.40;;
57249;SDS011;43102;52.014;-0.680;2023-04-01T02:45:01;8.00;;;5.40;;
57249;SDS011;43102;52.014;-0.680;2023-04-01T02:46:01;8.00;;;5.40;;
57249;SDS011;43102;52.014;-0.680;2023-04-01T02:47:00;8.00;;;5.40;;
57249;SDS011;43102;52.014;-0.680;2023-04-01T02:48:00;8.00;;;5.40;;
57249;SDS011;43102;52.014;-0.680;2023-04-01T02:49:00;8.00;;;5.40;;
57249;SDS011;43102;52.014;-0.680;2023-04-01T02:50:01;8.00;;;5.40;;
57249;SDS011;43102;52.014;-0.680;2023-04-01T02:51:01;8.00;;;5.40;;
57249;SDS011;43102;52.014;-0.680;2023-04-01T02:52:00;8.00;;;5.40;;
57249;SDS011;43102;52.014;-0.680;2023-04-01T02:53:03;8.00;;;5.40;;
57249;SDS011;43102;52.014;-0.680;2023-04-01T02:54:01;8.00;;;5.40;;
57249;SDS011;43102;52.014;-0.680;2023-04-01T02:55:01;8.00;;;5.40;;
57249;SDS011;43102;52.014;-0.680;2023-04-01T02:56:00;8.00;;;5.40;;
57249;SDS011;43102;52.014;-0.680;2023-04-01T02:57:00;8.00;;;5.40;;
57249;SDS011;43102;52.014;-0.680;2023-04-01T02:58:00;8.00;;;5.40;;
57249;SDS011;43102;52.014;-0.680;2023-04-01T02:59:01;8.00;;;5.40;;
57249;SDS011;43102;52.014;-0.680;2023-04-01T03:00:00;8.00;;;5.40;;
57249;SDS011;43102;52.014;-0.680;2023-04-01T03:01:00;8.00;;;5.40;;
57249;SDS011;43102;52.014;-0.680;2023-04-01T03:02:00;8.00;;;5.40;;
57249;SDS011;43102;52.014;-0.680;2023-04-01T03:03:02;8.00;;;5.40;;
57249;SDS011;43102;52.014;-0.680;2023-04-01T03:04:00;8.00;;;5.40;;
57249;SDS011;43102;52.014;-0.680;2023-04-01T03:05:00;4.00;;;3.60;;
57249;SDS011;43102;52.014;-0.680;2023-04-01T03:06:11;4.00;;;3.60;;
57249;SDS011;43102;52.014;-0.680;2023-04-01T03:07:01;4.00;;;3.60;;
57249;SDS011;43102;52.014;-0.680;2023-04-01T03:08:01;4.00;;;3.60;;
57249;SDS011;43102;52.014;-0.680;2023-04-01T03:09:00;4.00;;;3.60;;
57249;SDS011;43102;52.014;-0.680;2023-04-01T03:10:00;4.00;;;3.60;;
57249;SDS011;43102;52.014;-0.680;2023-04-01T03:11:00;4.00;;;3.60;;
57249;SDS011;43102;52.014;-0.680;2023-04-01T03:12:00;4.00;;;3.60;;
57249;SDS011;43102;52.014;-0.680;2023-04-01T03:13:00;4.00;;;3.60;;
57249;SDS011;43102;52.014;-0.680;2023-04-01T03:14:00;4.00;;;3.60;;
57249;SDS011;43102;52.014;-0.680;2023-04-01T03:15:11;4.00;;;3.60;;
57249;SDS011;43102;52.014;-0.680;2023-04-01T03:16:01;4.00;;;3.60;;
57249;SDS011;43102;52.014;-0.680;2023-04-01T03:17:01;4.00;;;3.60;;
57249;SDS011;43102;52.014;-0.680;2023-04-01T03:18:01;4.00;;;3.60;;
57249;SDS011;43102;52.014;-0.680;2023-04-01T03:19:02;4.00;;;3.60;;
57249;SDS011;43102;52.014;-0.680;2023-04-01T03:20:00;4.00;;;3.60;;
57249;SDS011;43102;52.014;-0.680;2023-04-01T03:21:12;4.00;;;3.60;;
57249;SDS011;43102;52.014;-0.680;2023-04-01T03:22:00;4.00;;;3.60;;
57249;SDS011;43102;52.014;-0.680;2023-04-01T03:23:00;4.00;;;3.60;;
57249;SDS011;43102;52.014;-0.680;2023-04-01T03:24:01;4.00;;;3.60;;
57249;SDS011;43102;52.014;-0.680;2023-04-01T03:25:01;4.00;;;3.60;;
57249;SDS011;43102;52.014;-0.680;2023-04-01T03:26:00;4.00;;;3.60;;
57249;SDS011;43102;52.014;-0.680;2023-04-01T03:27:00;4.00;;;3.60;;
57249;SDS011;43102;52.014;-0.680;2023-04-01T03:28:01;4.00;;;3.60;;
57249;SDS011;43102;52.014;-0.680;2023-04-01T03:29:00;4.00;;;3.60;;
57249;SDS011;43102;52.014;-0.680;2023-04-01T03:30:01;4.00;;;3.60;;
57249;SDS011;43102;52.014;-0.680;2023-04-01T03:31:01;4.00;;;3.60;;
57249;SDS011;43102;52.014;-0.680;2023-04-01T03:32:00;4.00;;;3.60;;
57249;SDS011;43102;52.014;-0.680;2023-04-01T03:33:01;4.00;;;3.60;;
57249;SDS011;43102;52.014;-0.680;2023-04-01T03:34:00;4.00;;;3.60;;
57249;SDS011;43102;52.014;-0.680;2023-04-01T03:35:00;7.00;;;5.60;;
57249;SDS011;43102;52.014;-0.680;2023-04-01T03:36:01;7.00;;;5.60;;
57249;SDS011;43102;52.014;-0.680;2023-04-01T03:37:00;7.00;;;5.60;;
57249;SDS011;43102;52.014;-0.680;2023-04-01T03:38:00;7.00;;;5.60;;
57249;SDS011;43102;52.014;-0.680;2023-04-01T03:39:00;7.00;;;5.60;;
57249;SDS011;43102;52.014;-0.680;2023-04-01T03:40:01;7.00;;;5.60;;
57249;SDS011;43102;52.014;-0.680;2023-04-01T03:41:01;7.00;;;5.60;;
57249;SDS011;43102;52.014;-0.680;2023-04-01T03:42:00;7.00;;;5.60;;
57249;SDS011;43102;52.014;-0.680;2023-04-01T03:43:01;7.00;;;5.60;;
57249;SDS011;43102;52.014;-0.680;2023-04-01T03:44:00;7.00;;;5.60;;
57249;SDS011;43102;52.014;-0.680;2023-04-01T03:45:01;7.00;;;5.60;;
57249;SDS011;43102;52.014;-0.680;2023-04-01T03:46:00;7.00;;;5.60;;
57249;SDS011;43102;52.014;-0.680;2023-04-01T03:47:01;7.00;;;5.60;;
57249;SDS011;43102;52.014;-0.680;2023-04-01T03:48:01;7.00;;;5.60;;
57249;SDS011;43102;52.014;-0.680;2023-04-01T03:49:01;7.00;;;5.60;;
57249;SDS011;43102;52.014;-0.680;2023-04-01T03:50:01;7.00;;;5.60;;
57249;SDS011;43102;52.014;-0.680;2023-04-01T03:51:00;7.00;;;5.60;;
57249;SDS011;43102;52.014;-0.680;2023-04-01T03:52:00;7.00;;;5.60;;
57249;SDS011;43102;52.014;-0.680;2023-04-01T03:53:00;7.00;;;5.60;;
57249;SDS011;43102;52.014;-0.680;2023-04-01T03:54:00;7.00;;;5.60;;
57249;SDS011;43102;52.014;-0.680;2023-04-01T03:55:01;7.00;;;5.60;;
57249;SDS011;43102;52.014;-0.680;2023-04-01T03:56:05;7.00;;;5.60;;
57249;SDS011;43102;52.014;-0.680;2023-04-01T03:57:00;7.00;;;5.60;;
57249;SDS011;43102;52.014;-0.680;2023-04-01T03:58:02;7.00;;;5.60;;
57249;SDS011;43102;52.014;-0.680;2023-04-01T03:59:03;7.00;;;5.60;;
57249;SDS011;43102;52.014;-0.680;2023-04-01T04:00:00;7.00;;;5.60;;
57249;SDS011;43102;52.014;-0.680;2023-04-01T04:01:00;7.00;;;5.60;;
57249;SDS011;43102;52.014;-0.680;2023-04-01T04:02:00;7.00;;;5.60;;
57249;SDS011;43102;52.014;-0.680;2023-04-01T04:03:01;7.00;;;5.60;;
57249;SDS011;43102;52.014;-0.680;2023-04-01T04:04:01;7.00;;;5.60;;
57249;SDS011;43102;52.014;-0.680;2023-04-01T04:05:01;9.30;;;6.10;;
57249;SDS011;43102;52.014;-0.680;2023-04-01T04:06:00;9.30;;;6.10;;
57249;SDS011;43102;52.014;-0.680;2023-04-01T04:07:01;9.30;;;6.10;;
57249;SDS011;43102;52.014;-0.680;2023-04-01T04:08:01;9.30;;;6.10;;
57249;SDS011;43102;52.014;-0.680;2023-04-01T04:09:00;9.30;;;6.10;;
57249;SDS011;43102;52.014;-0.680;2023-04-01T04:10:00;9.30;;;6.10;;
57249;SDS011;43102;52.014;-0.680;2023-04-01T04:11:00;9.30;;;6.10;;
57249;SDS011;43102;52.014;-0.680;2023-04-01T04:12:01;9.30;;;6.10;;
57249;SDS011;43102;52.014;-0.680;2023-04-01T04:13:00;9.30;;;6.10;;
57249;SDS011;43102;52.014;-0.680;2023-04-01T04:14:01;9.30;;;6.10;;
57249;SDS011;43102;52.014;-0.680;2023-04-01T04:15:01;9.30;;;6.10;;
57249;SDS011;43102;52.014;-0.680;2023-04-01T04:16:00;9.30;;;6.10;;
57249;SDS011;43102;52.014;-0.680;2023-04-01T04:17:00;9.30;;;6.10;;
57249;SDS011;43102;52.014;-0.680;2023-04-01T04:18:01;9.30;;;6.10;;
57249;SDS011;43102;52.014;-0.680;2023-04-01T04:19:00;9.30;;;6.10;;
57249;SDS011;43102;52.014;-0.680;2023-04-01T04:20:01;9.30;;;6.10;;
57249;SDS011;43102;52.014;-0.680;2023-04-01T04:21:00;9.30;;;6.10;;
57249;SDS011;43102;52.014;-0.680;2023-04-01T04:22:01;9.30;;;6.10;;
57249;SDS011;43102;52.014;-0.680;2023-04-01T04:23:00;9.30;;;6.10;;
57249;SDS011;43102;52.014;-0.680;2023-04-01T04:24:01;9.30;;;6.10;;
57249;SDS011;43102;52.014;-0.680;2023-04-01T04:25:00;9.30;;;6.10;;
57249;SDS011;43102;52.014;-0.680;2023-04-01T04:26:03;9.30;;;6.10;;
57249;SDS011;43102;52.014;-0.680;2023-04-01T04:27:01;9.30;;;6.10;;
57249;SDS011;43102;52.014;-0.680;2023-04-01T04:28:00;9.30;;;6.10;;
57249;SDS011;43102;52.014;-0.680;2023-04-01T04:29:01;9.30;;;6.10;;
57249;SDS011;43102;52.014;-0.680;2023-04-01T04:30:00;9.30;;;6.10;;
57249;SDS011;43102;52.014;-0.680;2023-04-01T04:31:01;9.30;;;6.10;;
57249;SDS011;43102;52.014;-0.680;2023-04-01T04:32:01;9.30;;;6.10;;
57249;SDS011;43102;52.014;-0.680;2023-04-01T04:33:01;9.30;;;6.10;;
57249;SDS011;43102;52.014;-0.680;2023-04-01T04:34:01;9.30;;;6.10;;
57249;SDS011;43102;52.014;-0.680;2023-04-01T04:35:00;9.10;;;5.20;;
57249;SDS011;43102;52.014;-0.680;2023-04-01T04:36:01;9.10;;;5.20;;
57249;SDS011;43102;52.014;-0.680;2023-04-01T04:37:00;9.10;;;5.20;;
57249;SDS011;43102;52.014;-0.680;2023-04-01T04:38:00;9.10;;;5.20;;
57249;SDS011;43102;52.014;-0.680;2023-04-01T04:39:03;9.10;;;5.20;;
57249;SDS011;43102;52.014;-0.680;2023-04-01T04:40:00;9.10;;;5.20;;
57249;SDS011;43102;52.014;-0.680;2023-04-01T04:41:00;9.10;;;5.20;;
57249;SDS011;43102;52.014;-0.680;2023-04-01T04:42:00;9.10;;;5.20;;
57249;SDS011;43102;52.014;-0.680;2023-04-01T04:43:00;9.10;;;5.20;;
57249;SDS011;43102;52.014;-0.680;2023-04-01T04:44:00;9.10;;;5.20;;
57249;SDS011;43102;52.014;-0.680;2023-04-01T04:45:00;9.10;;;5.20;;
57249;SDS011;43102;52.014;-0.680;2023-04-01T04:46:05;9.10;;;5.20;;
57249;SDS011;43102;52.014;-0.680;2023-04-01T04:47:01;9.10;;;5.20;;
57249;SDS011;43102;52.014;-0.680;2023-04-01T04:48:00;9.10;;;5.20;;
57249;SDS011;43102;52.014;-0.680;2023-04-01T04:49:00;9.10;;;5.20;;
57249;SDS011;43102;52.014;-0.680;2023-04-01T04:50:00;9.10;;;5.20;;
57249;SDS011;43102;52.014;-0.680;2023-04-01T04:51:01;9.10;;;5.20;;
57249;SDS011;43102;52.014;-0.680;2023-04-01T04:52:00;9.10;;;5.20;;
57249;SDS011;43102;52.014;-0.680;2023-04-01T04:53:01;9.10;;;5.20;;
57249;SDS011;43102;52.014;-0.680;2023-04-01T04:54:01;9.10;;;5.20;;
57249;SDS011;43102;52.014;-0.680;2023-04-01T04:55:00;9.10;;;5.20;;
57249;SDS011;43102;52.014;-0.680;2023-04-01T04:56:00;9.10;;;5.20;;
57249;SDS011;43102;52.014;-0.680;2023-04-01T04:57:00;9.10;;;5.20;;
57249;SDS011;43102;52.014;-0.680;2023-04-01T04:58:01;9.10;;;5.20;;
57249;SDS011;43102;52.014;-0.680;2023-04-01T04:59:01;9.10;;;5.20;;
57249;SDS011;43102;52.014;-0.680;2023-04-01T05:00:00;9.10;;;5.20;;
57249;SDS011;43102;52.014;-0.680;2023-04-01T05:01:11;9.10;;;5.20;;
57249;SDS011;43102;52.014;-0.680;2023-04-01T05:02:01;9.10;;;5.20;;
57249;SDS011;43102;52.014;-0.680;2023-04-01T05:03:01;9.10;;;5.20;;
57249;SDS011;43102;52.014;-0.680;2023-04-01T05:04:01;9.10;;;5.20;;
57249;SDS011;43102;52.014;-0.680;2023-04-01T05:05:00;9.20;;;6.60;;
57249;SDS011;43102;52.014;-0.680;2023-04-01T05:06:00;9.20;;;6.60;;
57249;SDS011;43102;52.014;-0.680;2023-04-01T05:07:00;9.20;;;6.60;;
57249;SDS011;43102;52.014;-0.680;2023-04-01T05:08:01;9.20;;;6.60;;
57249;SDS011;43102;52.014;-0.680;2023-04-01T05:09:00;9.20;;;6.60;;
57249;SDS011;43102;52.014;-0.680;2023-04-01T05:10:00;9.20;;;6.60;;
57249;SDS011;43102;52.014;-0.680;2023-04-01T05:11:01;9.20;;;6.60;;
57249;SDS011;43102;52.014;-0.680;2023-04-01T05:12:00;9.20;;;6.60;;
57249;SDS011;43102;52.014;-0.680;2023-04-01T05:13:00;9.20;;;6.60;;
57249;SDS011;43102;52.014;-0.680;2023-04-01T05:14:00;9.20;;;6.60;;
57249;SDS011;43102;52.014;-0.680;2023-04-01T05:15:00;9.20;;;6.60;;
57249;SDS011;43102;52.014;-0.680;2023-04-01T05:16:00;9.20;;;6.60;;
57249;SDS011;43102;52.014;-0.680;2023-04-01T05:17:00;9.20;;;6.60;;
57249;SDS011;43102;52.014;-0.680;2023-04-01T05:18:00;9.20;;;6.60;;
57249;SDS011;43102;52.014;-0.680;2023-04-01T05:19:00;9.20;;;6.60;;
57249;SDS011;43102;52.014;-0.680;2023-04-01T05:20:01;9.20;;;6.60;;
57249;SDS011;43102;52.014;-0.680;2023-04-01T05:21:00;9.20;;;6.60;;
57249;SDS011;43102;52.014;-0.680;2023-04-01T05:22:00;9.20;;;6.60;;
57249;SDS011;43102;52.014;-0.680;2023-04-01T05:23:01;9.20;;;6.60;;
57249;SDS011;43102;52.014;-0.680;2023-04-01T05:24:00;9.20;;;6.60;;
57249;SDS011;43102;52.014;-0.680;2023-04-01T05:25:00;9.20;;;6.60;;
57249;SDS011;43102;52.014;-0.680;2023-04-01T05:26:10;9.20;;;6.60;;
57249;SDS011;43102;52.014;-0.680;2023-04-01T05:27:01;9.20;;;6.60;;
57249;SDS011;43102;52.014;-0.680;2023-04-01T05:28:00;9.20;;;6.60;;
57249;SDS011;43102;52.014;-0.680;2023-04-01T05:29:00;9.20;;;6.60;;
57249;SDS011;43102;52.014;-0.680;2023-04-01T05:30:01;9.20;;;6.60;;
57249;SDS011;43102;52.014;-0.680;2023-04-01T05:31:02;9.20;;;6.60;;
57249;SDS011;43102;52.014;-0.680;2023-04-01T05:32:00;9.20;;;6.60;;
57249;SDS011;43102;52.014;-0.680;2023-04-01T05:33:00;9.20;;;6.60;;
57249;SDS011;43102;52.014;-0.680;2023-04-01T05:34:00;9.20;;;6.60;;
57249;SDS011;43102;52.014;-0.680;2023-04-01T05:35:00;7.80;;;5.60;;
57249;SDS011;43102;52.014;-0.680;2023-04-01T05:36:10;7.80;;;5.60;;
57249;SDS011;43102;52.014;-0.680;2023-04-01T05:37:00;7.80;;;5.60;;
57249;SDS011;43102;52.014;-0.680;2023-04-01T05:38:01;7.80;;;5.60;;
57249;SDS011;43102;52.014;-0.680;2023-04-01T05:39:01;7.80;;;5.60;;
57249;SDS011;43102;52.014;-0.680;2023-04-01T05:40:01;7.80;;;5.60;;
57249;SDS011;43102;52.014;-0.680;2023-04-01T05:41:02;7.80;;;5.60;;
57249;SDS011;43102;52.014;-0.680;2023-04-01T05:42:00;7.80;;;5.60;;
57249;SDS011;43102;52.014;-0.680;2023-04-01T05:43:00;7.80;;;5.60;;
57249;SDS011;43102;52.014;-0.680;2023-04-01T05:44:00;7.80;;;5.60;;
57249;SDS011;43102;52.014;-0.680;2023-04-01T05:45:00;7.80;;;5.60;;
57249;SDS011;43102;52.014;-0.680;2023-04-01T05:46:00;7.80;;;5.60;;
57249;SDS011;43102;52.014;-0.680;2023-04-01T05:47:01;7.80;;;5.60;;
57249;SDS011;43102;52.014;-0.680;2023-04-01T05:48:01;7.80;;;5.60;;
57249;SDS011;43102;52.014;-0.680;2023-04-01T05:49:00;7.80;;;5.60;;
57249;SDS011;43102;52.014;-0.680;2023-04-01T05:50:00;7.80;;;5.60;;
57249;SDS011;43102;52.014;-0.680;2023-04-01T05:51:02;7.80;;;5.60;;
57249;SDS011;43102;52.014;-0.680;2023-04-01T05:52:00;7.80;;;5.60;;
57249;SDS011;43102;52.014;-0.680;2023-04-01T05:53:00;7.80;;;5.60;;
57249;SDS011;43102;52.014;-0.680;2023-04-01T05:54:00;7.80;;;5.60;;
57249;SDS011;43102;52.014;-0.680;2023-04-01T05:55:00;7.80;;;5.60;;
57249;SDS011;43102;52.014;-0.680;2023-04-01T05:56:02;7.80;;;5.60;;
57249;SDS011;43102;52.014;-0.680;2023-04-01T05:57:00;7.80;;;5.60;;
57249;SDS011;43102;52.014;-0.680;2023-04-01T05:58:00;7.80;;;5.60;;
57249;SDS011;43102;52.014;-0.680;2023-04-01T05:59:00;7.80;;;5.60;;
57249;SDS011;43102;52.014;-0.680;2023-04-01T06:00:00;7.80;;;5.60;;
57249;SDS011;43102;52.014;-0.680;2023-04-01T06:01:12;7.80;;;5.60;;
57249;SDS011;43102;52.014;-0.680;2023-04-01T06:02:01;7.80;;;5.60;;
57249;SDS011;43102;52.014;-0.680;2023-04-01T06:03:01;7.80;;;5.60;;
57249;SDS011;43102;52.014;-0.680;2023-04-01T06:04:01;7.80;;;5.60;;
57249;SDS011;43102;52.014;-0.680;2023-04-01T06:05:19;7.10;;;5.20;;
57249;SDS011;43102;52.014;-0.680;2023-04-01T06:06:01;7.10;;;5.20;;
57249;SDS011;43102;52.014;-0.680;2023-04-01T06:07:01;7.10;;;5.20;;
57249;SDS011;43102;52.014;-0.680;2023-04-01T06:08:10;7.10;;;5.20;;
57249;SDS011;43102;52.014;-0.680;2023-04-01T06:09:11;7.10;;;5.20;;
57249;SDS011;43102;52.014;-0.680;2023-04-01T06:10:00;7.10;;;5.20;;
57249;SDS011;43102;52.014;-0.680;2023-04-01T06:13:12;7.10;;;5.20;;
57249;SDS011;43102;52.014;-0.680;2023-04-01T06:14:16;7.10;;;5.20;;